Time;durP1;ratioP1;P1;durP2;ratioP2;P2;SDS_P1;SDS_P2;PMS_P1;PMS_P2;Temp;Humidity;BMP_temperature;BMP_pressure;BME280_temperature;BME280_humidity;BME280_pressure;Samples;Min_cycle;Max_cycle;Signal;HPM_P1;HPM_P2
2021/07/28 05:01:37;;;;;;;9.40;7.05;;;;;;;31.10;43.85;95089.91;5584522;22;20134;-84
2021/07/28 05:04:03;;;;;;;10.10;6.57;;;;;;;30.68;44.55;95087.41;5048284;28;20029;-84
2021/07/28 05:06:28;;;;;;;7.95;6.43;;;;;;;31.36;42.51;95082.19;5050043;28;20039;-84
2021/07/28 05:08:54;;;;;;;10.65;6.68;;;;;;;31.40;42.08;95085.88;5048557;28;20255;-84
2021/07/28 05:11:19;;;;;;;8.80;6.72;;;;;;;31.57;42.42;95088.75;5050032;28;20040;-84
2021/07/28 05:13:45;;;;;;;6.40;5.82;;;;;;;28.48;49.77;95086.03;5049321;28;20517;-84
2021/07/28 05:16:10;;;;;;;8.07;5.75;;;;;;;30.50;46.01;95091.75;5048926;28;20517;-85
2021/07/28 05:18:36;;;;;;;7.50;6.28;;;;;;;31.53;43.32;95082.41;5050069;28;20084;-84
2021/07/28 05:21:01;;;;;;;8.02;5.93;;;;;;;32.39;40.35;95085.91;5048099;28;20029;-84
2021/07/28 05:23:26;;;;;;;8.63;6.60;;;;;;;32.44;40.53;95090.34;5050065;28;20025;-84
2021/07/28 05:25:52;;;;;;;8.30;6.10;;;;;;;33.74;38.73;95094.25;5048190;28;20532;-83
2021/07/28 05:28:17;;;;;;;9.13;6.43;;;;;;;32.74;40.02;95084.28;5049448;28;20476;-84
2021/07/28 05:30:43;;;;;;;6.68;5.93;;;;;;;34.30;36.97;95085.31;5048562;28;20060;-83
2021/07/28 05:33:08;;;;;;;9.85;6.30;;;;;;;33.46;38.61;95100.16;5049192;28;20029;-84
2021/07/28 05:35:34;;;;;;;8.90;6.50;;;;;;;33.35;38.69;95097.75;5049408;28;20029;-83
2021/07/28 05:38:00;;;;;;;9.32;6.30;;;;;;;30.90;42.69;95089.44;5048061;28;20410;-83
2021/07/28 05:40:25;;;;;;;7.80;5.93;;;;;;;32.82;40.96;95080.84;5049612;28;20171;-83
2021/07/28 05:42:52;;;;;;;6.88;6.15;;;;;;;34.07;38.15;95083.06;5047621;28;20032;-84
2021/07/28 05:45:18;;;;;;;10.73;6.13;;;;;;;33.34;40.94;95088.09;5049161;28;20486;-83
2021/07/28 05:47:45;;;;;;;11.98;6.65;;;;;;;33.51;40.40;95084.66;5047746;28;20051;-84
2021/07/28 05:50:12;;;;;;;7.97;5.95;;;;;;;35.83;36.08;95090.66;5049097;28;20025;-83
2021/07/28 05:52:37;;;;;;;9.03;5.63;;;;;;;36.00;35.44;95081.63;5048636;28;20036;-82
2021/07/28 05:55:03;;;;;;;7.85;5.88;;;;;;;36.89;34.96;95083.00;5048373;28;20259;-83
2021/07/28 05:57:28;;;;;;;11.13;5.88;;;;;;;36.15;35.27;95086.50;5048741;28;20033;-83
2021/07/28 05:59:54;;;;;;;6.32;4.97;;;;;;;35.55;34.00;95080.59;5047404;28;20037;-82
2021/07/28 06:02:19;;;;;;;5.93;4.72;;;;;;;36.24;33.94;95087.22;5048242;28;20041;-83
2021/07/28 06:04:45;;;;;;;8.52;4.68;;;;;;;34.70;36.06;95085.97;5047166;28;20033;-83
2021/07/28 06:07:10;;;;;;;7.18;4.88;;;;;;;37.61;32.21;95076.94;5048501;28;20029;-83
2021/07/28 06:09:36;;;;;;;6.63;5.10;;;;;;;36.34;33.72;95083.31;5047561;28;20029;-82
2021/07/28 06:12:01;;;;;;;8.27;4.20;;;;;;;36.73;33.96;95077.44;5048543;28;20371;-83
2021/07/28 06:14:27;;;;;;;5.82;4.90;;;;;;;37.83;32.28;95075.66;5048416;28;20608;-82
2021/07/28 06:16:53;;;;;;;5.05;4.50;;;;;;;38.13;32.46;95076.22;5047406;28;20120;-82
2021/07/28 06:19:19;;;;;;;5.50;4.55;;;;;;;35.97;34.79;95074.19;5048397;28;20032;-80
2021/07/28 06:21:44;;;;;;;5.88;4.68;;;;;;;36.20;35.81;95072.78;5047307;28;20078;-83
2021/07/28 06:24:09;;;;;;;6.32;4.40;;;;;;;33.88;37.80;95061.84;5047698;28;20025;-83
2021/07/28 06:26:35;;;;;;;5.35;4.43;;;;;;;37.10;33.97;95064.03;5047345;28;20095;-83
2021/07/28 06:29:00;;;;;;;7.80;5.05;;;;;;;36.05;34.37;95059.06;5048505;28;20106;-83
2021/07/28 06:31:26;;;;;;;5.45;4.65;;;;;;;36.96;34.36;95061.59;5047371;28;20028;-79
2021/07/28 06:33:51;;;;;;;6.78;4.80;;;;;;;38.27;31.93;95060.41;5048001;28;20453;-81
2021/07/28 06:36:17;;;;;;;8.25;4.38;;;;;;;37.43;34.00;95056.63;5047828;28;20021;-82
2021/07/28 06:38:43;;;;;;;5.25;4.70;;;;;;;35.47;35.99;95049.91;5046990;28;20020;-83
2021/07/28 06:41:08;;;;;;;5.88;4.43;;;;;;;36.56;33.24;95053.28;5048330;28;20025;-83
2021/07/28 06:43:34;;;;;;;6.38;4.50;;;;;;;35.94;33.85;95059.47;5028806;28;20098;-82
2021/07/28 06:45:59;;;;;;;7.18;4.80;;;;;;;36.36;32.09;95059.47;5048874;28;20403;-82
2021/07/28 06:48:25;;;;;;;5.47;4.45;;;;;;;38.05;31.93;95074.44;5046389;28;20323;-82
2021/07/28 06:50:51;;;;;;;5.93;4.60;;;;;;;38.77;29.59;95063.38;5048404;28;20066;-81
2021/07/28 06:53:17;;;;;;;7.90;4.40;;;;;;;39.82;29.05;95069.13;5047932;28;20028;-82
2021/07/28 06:55:42;;;;;;;10.48;5.40;;;;;;;38.53;29.68;95060.78;5047395;28;20474;-83
2021/07/28 06:58:08;;;;;;;5.32;4.65;;;;;;;39.88;27.72;95046.03;5047961;28;20025;-83
2021/07/28 07:00:33;;;;;;;5.40;4.68;;;;;;;35.03;35.57;95066.53;5046049;28;20090;-82
2021/07/28 07:02:59;;;;;;;12.27;5.45;;;;;;;35.48;36.83;95062.28;5047301;28;20536;-81
2021/07/28 07:05:25;;;;;;;5.97;5.40;;;;;;;33.07;37.76;95066.00;5045648;28;20465;-81
2021/07/28 07:07:51;;;;;;;7.95;5.20;;;;;;;34.08;37.63;95055.84;5046798;28;20104;-82
2021/07/28 07:10:16;;;;;;;7.78;5.18;;;;;;;32.30;41.15;95056.31;5046288;28;20032;-83
2021/07/28 07:12:41;;;;;;;7.22;5.13;;;;;;;34.35;38.70;95052.09;5045990;28;20029;-81
2021/07/28 07:15:07;;;;;;;7.93;4.93;;;;;;;35.29;35.66;95053.78;5046995;28;20021;-82
2021/07/28 07:17:33;;;;;;;7.07;4.65;;;;;;;34.22;35.48;95055.72;5045315;28;20071;-80
2021/07/28 07:19:58;;;;;;;6.63;5.20;;;;;;;38.14;32.20;95048.03;5047082;28;20425;-82
2021/07/28 07:22:24;;;;;;;8.73;4.78;;;;;;;38.62;31.23;95053.28;5045286;28;20027;-83
2021/07/28 07:24:49;;;;;;;7.63;4.53;;;;;;;38.39;30.62;95044.91;5046670;28;20422;-82
2021/07/28 07:27:15;;;;;;;4.75;4.20;;;;;;;40.43;28.70;95045.63;5045372;28;20516;-82
2021/07/28 07:29:40;;;;;;;9.25;4.35;;;;;;;39.67;28.69;95046.31;5046656;28;20021;-81
2021/07/28 07:32:06;;;;;;;5.13;4.45;;;;;;;36.35;31.80;95050.59;5045847;28;20017;-81
2021/07/28 07:34:32;;;;;;;8.32;5.72;;;;;;;34.49;34.67;95050.00;5045409;28;20032;-81
2021/07/28 07:36:57;;;;;;;8.80;4.90;;;;;;;34.34;35.67;95045.09;5032026;28;20025;-82
2021/07/28 07:39:23;;;;;;;9.75;5.35;;;;;;;33.65;36.59;95047.72;5048880;28;20029;-83
2021/07/28 07:41:48;;;;;;;6.65;5.10;;;;;;;33.32;40.48;95041.16;5050300;28;20037;-82
2021/07/28 07:44:14;;;;;;;8.35;4.65;;;;;;;34.11;37.48;95043.69;5048852;28;20029;-81
2021/07/28 07:46:39;;;;;;;16.52;6.47;;;;;;;32.59;39.36;95036.38;5049971;28;20032;-81
2021/07/28 07:49:05;;;;;;;8.02;5.53;;;;;;;33.78;37.94;95038.72;5049043;28;20418;-81
2021/07/28 07:51:31;;;;;;;10.88;5.63;;;;;;;33.81;37.99;95037.34;5049197;28;20032;-82
2021/07/28 07:53:57;;;;;;;7.32;5.20;;;;;;;33.43;40.63;95045.13;5050105;28;20025;-82
2021/07/28 07:56:23;;;;;;;6.20;5.43;;;;;;;33.99;38.03;95041.59;5048508;28;20031;-81
2021/07/28 07:58:48;;;;;;;8.73;5.53;;;;;;;33.02;40.51;95042.72;5052591;28;20033;-82
2021/07/28 08:01:13;;;;;;;10.90;5.60;;;;;;;34.41;39.40;95045.41;5057320;28;20048;-81
2021/07/28 08:03:39;;;;;;;8.30;5.97;;;;;;;34.33;39.05;95038.13;5059196;28;20491;-81
2021/07/28 08:06:05;;;;;;;10.20;5.85;;;;;;;34.77;37.82;95040.47;5058628;28;20124;-81
2021/07/28 08:08:31;;;;;;;10.25;6.03;;;;;;;34.49;39.85;95033.03;5057512;28;20025;-83
2021/07/28 08:10:57;;;;;;;10.23;6.75;;;;;;;34.35;39.93;95035.94;5056214;28;20025;-83
2021/07/28 08:13:27;;;;;;;6.45;5.82;;;;;;;34.23;37.49;95025.03;5061766;28;20017;-84
2021/07/28 08:15:53;;;;;;;6.68;5.95;;;;;;;33.38;39.51;95032.63;5052617;28;20577;-83
2021/07/28 08:18:19;;;;;;;12.50;6.30;;;;;;;34.10;39.16;95031.34;5055388;28;20183;-84
2021/07/28 08:20:45;;;;;;;9.20;6.72;;;;;;;34.41;39.33;95027.38;5048068;28;20506;-83
2021/07/28 08:23:10;;;;;;;7.18;5.35;;;;;;;34.20;39.22;95018.34;5052311;28;20108;-81
2021/07/28 08:25:36;;;;;;;11.48;6.43;;;;;;;33.99;38.25;95025.47;5046420;28;20032;-85
2021/07/28 08:28:01;;;;;;;9.45;5.90;;;;;;;34.26;38.03;95027.09;5039709;28;20047;-84
2021/07/28 08:30:27;;;;;;;6.35;5.70;;;;;;;34.49;37.37;95017.69;5043173;28;20899;-83
2021/07/28 08:32:52;;;;;;;6.70;5.78;;;;;;;34.21;36.83;95019.94;5042734;28;20025;-84
2021/07/28 08:35:18;;;;;;;10.00;5.80;;;;;;;33.30;40.41;95022.63;5047277;28;20029;-80
2021/07/28 08:37:43;;;;;;;9.05;6.03;;;;;;;33.75;40.00;95015.16;5068248;28;20036;-83
2021/07/28 08:40:13;;;;;;;9.82;5.90;;;;;;;33.72;38.65;95013.09;5067093;28;20158;-81
2021/07/28 08:42:40;;;;;;;9.25;5.22;;;;;;;34.00;38.68;95002.84;5069232;28;20024;-82
2021/07/28 08:45:06;;;;;;;7.60;6.55;;;;;;;34.45;36.95;95006.00;5066625;28;20028;-82
2021/07/28 08:47:32;;;;;;;9.70;6.10;;;;;;;33.54;38.72;94997.25;5068409;28;20031;-84
2021/07/28 08:49:57;;;;;;;5.57;4.90;;;;;;;34.05;39.00;94994.59;5067578;28;20489;-84
2021/07/28 08:52:23;;;;;;;13.88;6.18;;;;;;;33.84;38.39;94996.38;5050802;28;20024;-84
2021/07/28 08:54:48;;;;;;;9.05;5.78;;;;;;;33.99;41.10;94993.19;5050929;28;20031;-84
2021/07/28 08:57:14;;;;;;;10.85;5.97;;;;;;;34.12;37.57;94994.97;5067166;28;20113;-83
2021/07/28 08:59:39;;;;;;;9.45;6.15;;;;;;;34.51;37.37;95002.03;5068563;28;20064;-84
2021/07/28 09:02:05;;;;;;;7.22;5.53;;;;;;;34.42;37.04;94999.34;5067375;28;20036;-86
2021/07/28 09:04:30;;;;;;;8.52;5.25;;;;;;;34.05;39.26;94996.50;5068760;28;20382;-82
2021/07/28 09:06:56;;;;;;;7.10;6.50;;;;;;;34.27;37.97;94994.47;5067779;28;20025;-84
2021/07/28 09:09:22;;;;;;;8.48;5.90;;;;;;;34.24;37.05;94994.31;5068227;28;20051;-85
2021/07/28 09:11:54;;;;;;;9.63;5.65;;;;;;;34.21;37.77;94992.25;5068291;28;20488;-85
2021/07/28 09:14:21;;;;;;;9.63;5.78;;;;;;;34.44;37.04;94988.25;5060544;28;20051;-85
2021/07/28 09:16:47;;;;;;;10.95;6.25;;;;;;;34.73;38.98;94983.00;5061091;28;20068;-81
2021/07/28 09:19:12;;;;;;;6.47;5.80;;;;;;;34.76;37.17;94987.72;5056589;28;20060;-81
2021/07/28 09:21:38;;;;;;;10.48;6.15;;;;;;;33.99;37.70;94985.13;5053445;28;20492;-81
2021/07/28 09:24:12;;;;;;;9.85;6.13;;;;;;;34.48;37.74;94985.72;5058104;28;20020;-81
2021/07/28 09:26:39;;;;;;;7.88;5.97;;;;;;;34.87;36.11;94983.53;5053589;28;20035;-81
2021/07/28 09:29:18;;;;;;;6.50;5.82;;;;;;;34.79;38.46;94981.69;5055100;28;20557;-79
2021/07/28 09:31:45;;;;;;;9.95;5.70;;;;;;;34.79;36.64;94976.31;5052883;28;20654;-79
2021/07/28 09:34:26;;;;;;;10.07;5.70;;;;;;;34.27;35.86;94981.00;5049139;28;20013;-80
2021/07/28 09:37:04;;;;;;;7.13;5.60;;;;;;;33.92;36.31;94974.84;5052872;28;20560;-78
2021/07/28 09:39:30;;;;;;;10.50;5.87;;;;;;;34.22;37.35;94983.06;5043276;28;20055;-80
2021/07/28 09:41:57;;;;;;;11.55;5.80;;;;;;;34.36;37.87;94979.09;5045942;28;20406;-77
2021/07/28 09:44:30;;;;;;;10.45;5.95;;;;;;;34.21;37.54;94968.84;5048428;28;20025;-80
2021/07/28 09:47:15;;;;;;;12.27;6.03;;;;;;;34.08;35.09;94975.16;5049283;28;20406;-81
2021/07/28 09:49:42;;;;;;;9.85;5.70;;;;;;;33.64;36.00;94968.19;5046641;28;20533;-81
2021/07/28 09:52:26;;;;;;;10.77;6.15;;;;;;;34.65;35.57;94964.16;5049411;28;20474;-81
2021/07/28 09:54:56;;;;;;;9.65;5.78;;;;;;;34.87;34.70;94961.22;5045735;28;20009;-82
2021/07/28 09:57:23;;;;;;;9.68;5.20;;;;;;;34.82;36.12;94958.72;5060731;28;20025;-82
2021/07/28 10:00:06;;;;;;;8.63;5.57;;;;;;;34.92;35.91;94952.97;5066358;28;20025;-78
2021/07/28 10:02:34;;;;;;;13.18;6.28;;;;;;;34.66;34.11;94958.44;5056284;28;20120;-81
2021/07/28 10:05:01;;;;;;;14.20;6.20;;;;;;;34.26;33.86;94955.19;5067132;28;20039;-80
2021/07/28 10:07:26;;;;;;;19.20;5.78;;;;;;;34.60;33.93;94951.66;5066489;28;20474;-80
2021/07/28 10:10:07;;;;;;;9.48;6.03;;;;;;;34.38;34.84;94944.59;5065271;28;20027;-80
2021/07/28 10:12:36;;;;;;;11.73;5.53;;;;;;;34.68;32.52;94948.13;5054064;28;20057;-81
2021/07/28 10:15:02;;;;;;;12.55;5.85;;;;;;;35.07;33.95;94954.31;5028680;28;20490;-80
2021/07/28 10:17:28;;;;;;;12.77;5.90;;;;;;;34.74;32.70;94946.09;5048023;28;20033;-80
2021/07/28 10:19:54;;;;;;;9.85;5.43;;;;;;;34.55;32.32;94941.03;5055914;28;20508;-81
2021/07/28 10:22:19;;;;;;;10.75;5.32;;;;;;;35.05;34.05;94937.69;5066164;28;20025;-79
2021/07/28 10:24:45;;;;;;;18.00;6.38;;;;;;;35.42;33.73;94942.22;5060134;28;20028;-78
2021/07/28 10:27:11;;;;;;;12.50;5.30;;;;;;;35.19;31.27;94941.75;5046351;28;20477;-80
2021/07/28 10:29:36;;;;;;;8.90;5.00;;;;;;;34.92;33.32;94937.59;5046957;28;20017;-78
2021/07/28 10:32:02;;;;;;;9.95;5.53;;;;;;;35.67;31.80;94932.41;5059266;28;20040;-80
2021/07/28 10:34:34;;;;;;;13.63;5.80;;;;;;;35.26;30.38;94933.13;5067343;28;20017;-79
2021/07/28 10:37:07;;;;;;;8.82;5.47;;;;;;;35.43;32.15;94920.34;5065694;28;20039;-81
2021/07/28 10:39:47;;;;;;;11.45;5.53;;;;;;;36.08;31.73;94927.00;5067353;28;20031;-76
2021/07/28 10:42:19;;;;;;;7.97;5.28;;;;;;;35.81;30.29;94920.22;5064320;28;20386;-77
2021/07/28 10:44:56;;;;;;;11.38;5.80;;;;;;;35.28;31.58;94917.44;5055064;28;20035;-77
2021/07/28 10:47:43;;;;;;;9.68;5.10;;;;;;;35.42;30.33;94915.28;5052357;28;20559;-77
2021/07/28 10:50:29;;;;;;;11.52;5.07;;;;;;;35.61;32.68;94912.94;5045581;28;20059;-77
2021/07/28 10:52:55;;;;;;;10.45;5.32;;;;;;;35.97;30.11;94913.09;5046546;28;20567;-77
2021/07/28 10:55:30;;;;;;;12.85;5.32;;;;;;;35.87;30.93;94918.09;5049230;28;20041;-77
2021/07/28 10:58:11;;;;;;;11.02;5.70;;;;;;;35.55;30.69;94908.84;5053053;28;20040;-77
2021/07/28 11:00:40;;;;;;;15.02;5.03;;;;;;;35.81;31.12;94905.94;5060509;28;20326;-76
2021/07/28 11:03:08;;;;;;;;;;;;;;;36.39;31.01;94905.72;5066515;28;20044;-76
2021/07/28 11:05:40;;;;;;;14.07;5.47;;;;;;;35.81;29.09;94908.66;5061892;28;19963;-78
2021/07/28 11:08:05;;;;;;;9.93;5.45;;;;;;;35.88;29.73;94908.91;5052271;28;20402;-79
2021/07/28 11:10:40;;;;;;;10.75;5.07;;;;;;;35.83;28.66;94899.13;5047418;28;20021;-77
2021/07/28 11:13:12;;;;;;;7.65;5.40;;;;;;;35.62;30.61;94903.72;5047432;28;20025;-77
2021/07/28 11:15:39;;;;;;;11.32;5.05;;;;;;;36.13;30.61;94899.00;5049213;28;20870;-76
2021/07/28 11:18:04;;;;;;;15.40;6.05;;;;;;;36.28;28.33;94906.47;5050993;28;20057;-77
2021/07/28 11:20:32;;;;;;;14.93;5.55;;;;;;;36.06;30.29;94890.69;5044191;28;20025;-77
2021/07/28 11:23:25;;;;;;;9.52;6.05;;;;;;;36.26;29.31;94897.91;5055704;28;20427;-76
2021/07/28 11:25:51;;;;;;;13.80;6.70;;;;;;;36.31;30.77;94895.00;5062781;28;20025;-77
2021/07/28 11:28:19;;;;;;;9.90;5.43;;;;;;;36.55;30.42;94895.06;5047271;28;20025;-77
2021/07/28 11:30:46;;;;;;;16.45;5.57;;;;;;;36.10;29.28;94884.28;5048967;28;20128;-78
2021/07/28 11:33:13;;;;;;;16.80;6.43;;;;;;;35.33;29.53;94882.22;5048861;28;20114;-75
2021/07/28 11:35:41;;;;;;;12.63;6.15;;;;;;;36.41;29.51;94887.25;5060825;28;20024;-76
2021/07/28 11:38:20;;;;;;;10.75;6.20;;;;;;;36.74;28.74;94881.78;5061941;28;20074;-76
2021/07/28 11:40:47;;;;;;;11.77;5.07;;;;;;;36.65;28.73;94875.72;5053524;28;20033;-77
2021/07/28 11:43:43;;;;;;;11.15;4.97;;;;;;;36.76;28.43;94878.78;5047768;28;20103;-77
2021/07/28 11:46:13;;;;;;;14.57;5.47;;;;;;;36.24;27.66;94873.97;5061977;28;20021;-76
2021/07/28 11:48:44;;;;;;;10.63;4.85;;;;;;;36.58;30.11;94872.78;5052609;28;20021;-76
2021/07/28 11:51:35;;;;;;;11.25;5.13;;;;;;;36.92;29.93;94869.66;5048329;28;20032;-74
2021/07/28 11:54:15;;;;;;;7.32;4.47;;;;;;;36.67;28.53;94864.59;5059335;28;20040;-75
2021/07/28 11:56:48;;;;;;;11.43;4.45;;;;;;;36.72;28.35;94864.34;5051795;28;20041;-77
2021/07/28 11:59:13;;;;;;;17.10;4.93;;;;;;;36.22;28.10;94853.84;5053588;28;20482;-79
2021/07/28 12:01:55;;;;;;;14.52;5.05;;;;;;;36.82;27.43;94847.69;5052499;28;20076;-77
2021/07/28 12:04:25;;;;;;;14.80;5.80;;;;;;;36.96;27.20;94840.81;5054033;28;20142;-78
2021/07/28 12:06:50;;;;;;;15.15;4.82;;;;;;;36.60;27.60;94848.94;5060683;28;20039;-76
2021/07/28 12:09:26;;;;;;;18.08;5.40;;;;;;;36.62;26.54;94841.28;5058641;28;20029;-77
2021/07/28 12:11:55;;;;;;;14.35;5.20;;;;;;;36.46;25.66;94840.34;5047759;28;20035;-77
2021/07/28 12:14:26;;;;;;;;;;;;;;;36.38;26.85;94839.31;5059871;28;20035;-80
2021/07/28 12:16:57;;;;;;;15.85;5.07;;;;;;;36.96;27.19;94840.00;5067202;28;19986;-77
2021/07/28 12:19:30;;;;;;;14.38;5.35;;;;;;;37.25;28.15;94833.56;5067558;28;20025;-77
2021/07/28 12:22:12;;;;;;;11.35;5.18;;;;;;;37.21;26.33;94830.78;5064725;28;20025;-77
2021/07/28 12:24:42;;;;;;;13.23;5.32;;;;;;;36.57;25.53;94833.44;5048005;28;20043;-78
2021/07/28 12:27:29;;;;;;;16.15;5.15;;;;;;;37.12;26.95;94816.59;5064310;28;20028;-78
2021/07/28 12:30:06;;;;;;;13.45;4.82;;;;;;;37.08;25.98;94823.03;5068143;28;20035;-78
2021/07/28 12:32:37;;;;;;;19.70;4.68;;;;;;;37.22;26.66;94823.44;5068397;28;20048;-77
2021/07/28 12:35:04;;;;;;;16.35;5.07;;;;;;;37.36;27.25;94821.16;5068818;28;20060;-77
2021/07/28 12:37:29;;;;;;;11.93;4.38;;;;;;;37.26;25.59;94810.81;5068071;28;20039;-76
2021/07/28 12:39:56;;;;;;;14.82;5.03;;;;;;;37.05;25.60;94815.59;5069204;28;20513;-76
2021/07/28 12:42:21;;;;;;;17.80;4.95;;;;;;;37.16;26.23;94819.38;5067829;28;20025;-76
2021/07/28 12:44:46;;;;;;;11.75;4.82;;;;;;;37.05;25.30;94810.19;5068843;28;20496;-77
2021/07/28 12:47:12;;;;;;;18.13;7.82;;;;;;;37.13;24.51;94806.56;5050195;28;20390;-77
2021/07/28 12:49:37;;;;;;;17.48;5.85;;;;;;;37.42;24.10;94808.94;5068822;28;20527;-77
2021/07/28 12:52:03;;;;;;;21.20;5.35;;;;;;;37.13;26.27;94809.25;5068468;28;20048;-77
2021/07/28 12:54:28;;;;;;;15.43;5.38;;;;;;;37.06;25.25;94812.53;5068143;28;20067;-77
2021/07/28 12:56:54;;;;;;;17.10;4.57;;;;;;;37.00;25.13;94813.13;5068752;28;20028;-78
2021/07/28 12:59:19;;;;;;;12.25;4.80;;;;;;;37.33;25.69;94805.59;5067247;28;20039;-78
2021/07/28 13:01:45;;;;;;;12.43;5.35;;;;;;;37.25;25.93;94807.31;5055506;28;20445;-76
2021/07/28 13:04:10;;;;;;;13.68;5.82;;;;;;;37.05;25.63;94802.09;5038072;28;20033;-77
2021/07/28 13:06:44;;;;;;;14.82;5.10;;;;;;;37.01;26.51;94809.31;5056463;28;20094;-78
2021/07/28 13:09:10;;;;;;;13.35;5.15;;;;;;;36.93;27.11;94803.66;5039796;28;20025;-78
2021/07/28 13:11:35;;;;;;;12.93;5.40;;;;;;;36.61;27.75;94796.50;5040195;28;20028;-78
2021/07/28 13:14:01;;;;;;;15.68;5.57;;;;;;;36.54;27.19;94793.56;5055393;28;20111;-78
2021/07/28 13:16:27;;;;;;;14.40;5.68;;;;;;;36.25;27.73;94799.19;5059615;28;20016;-78
2021/07/28 13:18:52;;;;;;;14.38;5.85;;;;;;;36.27;27.74;94794.22;5060486;28;20036;-78
2021/07/28 13:21:18;;;;;;;15.88;5.32;;;;;;;36.12;28.83;94784.88;5061512;28;20044;-77
2021/07/28 13:23:43;;;;;;;14.57;5.30;;;;;;;36.03;27.81;94786.09;5048318;28;20025;-77
2021/07/28 13:26:10;;;;;;;15.52;5.38;;;;;;;36.15;27.96;94780.72;5060265;28;20025;-76
2021/07/28 13:28:35;;;;;;;20.83;5.72;;;;;;;36.38;27.93;94776.47;5052558;28;20387;-77
2021/07/28 13:31:00;;;;;;;16.23;5.00;;;;;;;36.21;28.38;94779.38;5048457;28;20021;-77
2021/07/28 13:33:26;;;;;;;23.77;5.45;;;;;;;36.27;28.49;94773.41;5043732;28;20478;-74
2021/07/28 13:35:51;;;;;;;8.57;4.93;;;;;;;36.01;29.12;94772.13;5047596;28;20064;-74
2021/07/28 13:38:17;;;;;;;19.17;5.28;;;;;;;35.81;26.78;94763.78;5050777;28;20021;-77
2021/07/28 13:40:42;;;;;;;21.67;5.65;;;;;;;35.72;28.24;94767.69;5044994;28;20409;-76
2021/07/28 13:43:08;;;;;;;13.82;4.78;;;;;;;35.38;29.85;94766.13;5066478;28;20033;-76
2021/07/28 13:45:35;;;;;;;13.75;5.32;;;;;;;35.50;30.26;94768.84;5067929;28;20036;-76
2021/07/28 13:48:00;;;;;;;16.83;4.85;;;;;;;35.54;31.17;94768.97;5066855;28;20020;-77
2021/07/28 13:50:26;;;;;;;20.27;5.53;;;;;;;35.65;31.66;94775.53;5049553;28;20032;-79
2021/07/28 13:52:53;;;;;;;21.17;4.85;;;;;;;35.51;28.33;94770.44;5067308;28;20044;-77
2021/07/28 13:55:18;;;;;;;13.75;4.72;;;;;;;35.43;29.80;94757.81;5054338;28;20038;-76
2021/07/28 13:57:44;;;;;;;19.83;4.70;;;;;;;35.50;29.51;94768.84;5047599;28;20029;-77
2021/07/28 14:00:13;;;;;;;14.38;4.85;;;;;;;35.55;30.85;94765.94;5045954;28;20470;-77
2021/07/28 14:02:39;;;;;;;17.08;4.75;;;;;;;35.42;30.51;94773.19;5047686;28;20537;-77
2021/07/28 14:05:05;;;;;;;16.50;4.63;;;;;;;35.06;31.42;94775.72;5046370;28;20037;-78
2021/07/28 14:07:30;;;;;;;19.13;4.82;;;;;;;34.93;32.19;94766.00;5047829;28;20109;-77
2021/07/28 14:09:56;;;;;;;12.98;5.50;;;;;;;34.64;32.25;94763.34;5046551;28;20029;-77
2021/07/28 14:12:22;;;;;;;18.92;4.82;;;;;;;34.45;33.32;94763.75;5046973;28;20021;-77
2021/07/28 14:14:48;;;;;;;16.27;5.22;;;;;;;34.18;34.63;94770.38;5047278;28;20025;-77
2021/07/28 14:17:13;;;;;;;19.73;5.15;;;;;;;34.13;33.27;94767.84;5028236;28;20474;-78
2021/07/28 14:19:39;;;;;;;12.75;5.13;;;;;;;34.27;33.32;94767.63;5060355;28;20052;-77
2021/07/28 14:22:05;;;;;;;17.98;5.55;;;;;;;34.17;34.19;94774.16;5065952;28;20074;-77
2021/07/28 14:24:31;;;;;;;19.10;5.18;;;;;;;34.15;34.32;94775.63;5067487;28;20035;-78
2021/07/28 14:26:57;;;;;;;20.58;5.88;;;;;;;34.26;34.11;94779.53;5037264;28;20063;-77
2021/07/28 14:29:22;;;;;;;18.80;5.97;;;;;;;34.08;34.42;94778.78;5046308;28;20033;-77
2021/07/28 14:31:48;;;;;;;16.75;5.65;;;;;;;34.12;34.72;94768.19;5046785;28;20021;-77
2021/07/28 14:34:13;;;;;;;17.42;5.85;;;;;;;33.76;35.66;94766.72;5045621;28;20025;-78
2021/07/28 14:36:38;;;;;;;21.30;5.25;;;;;;;33.95;35.92;94760.94;5047248;28;20029;-77
2021/07/28 14:39:05;;;;;;;20.40;5.35;;;;;;;34.09;37.31;94764.22;5033193;28;20098;-78
2021/07/28 14:41:31;;;;;;;32.20;6.93;;;;;;;33.69;37.18;94761.03;5026962;28;20032;-80
2021/07/28 14:43:56;;;;;;;17.23;6.05;;;;;;;33.72;37.76;94756.91;5025807;28;20013;-81
2021/07/28 14:46:22;;;;;;;9.63;5.53;;;;;;;33.81;38.77;94750.41;5026150;28;20025;-79
2021/07/28 14:48:51;;;;;;;16.48;5.75;;;;;;;33.87;36.98;94749.13;5024419;28;20032;-82
2021/07/28 14:51:17;;;;;;;22.42;5.93;;;;;;;33.80;37.15;94750.72;5026102;28;20029;-81
2021/07/28 14:53:43;;;;;;;17.45;5.55;;;;;;;33.64;36.83;94741.59;5027104;28;20022;-84
2021/07/28 14:56:09;;;;;;;17.40;5.32;;;;;;;33.95;36.65;94744.03;5024631;28;20041;-82
2021/07/28 14:58:34;;;;;;;17.05;5.18;;;;;;;34.02;35.21;94747.00;5024929;28;20029;-83
2021/07/28 15:01:00;;;;;;;15.30;5.75;;;;;;;34.39;35.86;94735.44;5024921;28;20045;-83
2021/07/28 15:03:25;;;;;;;17.88;6.07;;;;;;;34.53;34.19;94730.59;5024716;28;20033;-83
2021/07/28 15:05:50;;;;;;;12.90;5.70;;;;;;;34.61;34.30;94724.41;5007668;28;20018;-86
2021/07/28 15:08:16;;;;;;;14.80;5.97;;;;;;;34.61;32.62;94704.78;5006652;28;20022;-85
2021/07/28 15:10:41;;;;;;;20.20;6.15;;;;;;;34.81;33.04;94702.06;5025005;28;20033;-85
2021/07/28 15:13:07;;;;;;;15.45;5.18;;;;;;;35.12;32.94;94707.06;5024120;28;20091;-81
2021/07/28 15:15:32;;;;;;;19.77;7.78;;;;;;;34.86;29.26;94685.72;5026582;28;20033;-83
2021/07/28 15:17:58;;;;;;;20.27;6.32;;;;;;;35.13;29.49;94695.16;5006451;28;20065;-84
2021/07/28 15:20:23;;;;;;;19.83;6.35;;;;;;;35.35;29.19;94692.06;5025782;28;20030;-82
2021/07/28 15:22:49;;;;;;;20.90;6.30;;;;;;;35.24;27.63;94698.22;5024897;28;20026;-83
2021/07/28 15:25:14;;;;;;;20.98;6.15;;;;;;;35.67;28.10;94693.19;5025471;28;20020;-83
2021/07/28 15:27:39;;;;;;;12.40;6.18;;;;;;;35.49;30.05;94697.16;5025565;28;20763;-83
2021/07/28 15:30:05;;;;;;;13.93;5.75;;;;;;;35.40;31.96;94702.66;5024423;28;20022;-83
2021/07/28 15:32:31;;;;;;;15.93;5.80;;;;;;;34.92;37.50;94695.19;5025971;28;20021;-85
2021/07/28 15:34:56;;;;;;;17.02;6.32;;;;;;;34.91;35.52;94696.28;5024036;28;20022;-84
2021/07/28 15:37:22;;;;;;;17.15;6.45;;;;;;;34.62;33.19;94709.81;5007971;28;20030;-83
2021/07/28 15:40:06;;;;;;;11.73;5.85;;;;;;;34.48;34.86;94711.16;5024508;28;20478;-82
2021/07/28 15:42:37;;;;;;;16.35;6.32;;;;;;;34.43;32.51;94712.94;5025039;28;20032;-82
2021/07/28 15:45:03;;;;;;;15.43;6.30;;;;;;;34.41;33.49;94709.78;5025056;28;20026;-83
2021/07/28 15:47:29;;;;;;;15.52;6.47;;;;;;;34.36;31.80;94701.09;5024648;28;20057;-83
2021/07/28 15:49:54;;;;;;;22.88;7.05;;;;;;;34.44;31.84;94705.66;5026028;28;20498;-82
2021/07/28 15:52:20;;;;;;;16.48;6.15;;;;;;;34.43;30.56;94706.75;5023729;28;20029;-84
2021/07/28 15:54:45;;;;;;;13.52;5.88;;;;;;;34.43;30.97;94709.44;5025948;28;20056;-83
2021/07/28 15:57:11;;;;;;;15.98;6.57;;;;;;;34.44;30.90;94702.97;5025394;28;20112;-83
2021/07/28 15:59:36;;;;;;;20.77;6.30;;;;;;;34.39;31.89;94705.81;5028787;28;20028;-84
2021/07/28 16:02:03;;;;;;;14.25;6.78;;;;;;;34.19;34.26;94717.38;5028229;28;20517;-82
2021/07/28 16:04:28;;;;;;;15.50;6.40;;;;;;;33.54;40.14;94715.84;5027999;28;20411;-84
2021/07/28 16:06:54;;;;;;;17.30;6.07;;;;;;;33.06;43.41;94717.97;5027756;28;20013;-83
2021/07/28 16:09:20;;;;;;;14.93;5.47;;;;;;;33.01;44.55;94718.13;5027419;28;20406;-83
2021/07/28 16:11:45;;;;;;;17.50;5.88;;;;;;;32.91;44.73;94713.06;5045876;28;20024;-83
2021/07/28 16:14:41;;;;;;;13.65;5.68;;;;;;;32.96;44.15;94705.66;5047351;28;20044;-83
2021/07/28 16:17:33;;;;;;;20.98;5.70;;;;;;;32.85;44.25;94709.75;5051205;28;20456;-82
2021/07/28 16:20:04;;;;;;;15.63;6.22;;;;;;;32.80;44.31;94708.03;5055617;28;20062;-82
2021/07/28 16:22:36;;;;;;;19.10;5.88;;;;;;;32.81;43.90;94700.75;5037831;28;20490;-83
2021/07/28 16:25:02;;;;;;;13.23;5.72;;;;;;;32.77;43.99;94714.03;5056440;28;20036;-82
2021/07/28 16:27:27;;;;;;;16.17;5.25;;;;;;;32.54;45.56;94701.81;5037562;28;20025;-83
2021/07/28 16:29:53;;;;;;;18.25;6.32;;;;;;;32.43;45.29;94705.13;5066789;28;20416;-83
2021/07/28 16:32:18;;;;;;;18.90;5.90;;;;;;;32.32;45.52;94704.63;5052880;28;20021;-83